sensor_id;sensor_type;location;lat;lon;timestamp;P1;durP1;ratioP1;P2;durP2;ratioP2
18732;SDS011;9495;51.210;2.934;2023-10-08T00:00:48;16.70;;;5.75;;
18732;SDS011;9495;51.210;2.934;2023-10-08T00:03:18;18.52;;;4.90;;
18732;SDS011;9495;51.210;2.934;2023-10-08T00:05:47;24.88;;;5.07;;
18732;SDS011;9495;51.210;2.934;2023-10-08T00:08:17;18.75;;;5.20;;
18732;SDS011;9495;51.210;2.934;2023-10-08T00:10:47;16.38;;;5.45;;
18732;SDS011;9495;51.210;2.934;2023-10-08T00:13:17;23.25;;;4.93;;
18732;SDS011;9495;51.210;2.934;2023-10-08T00:15:46;16.30;;;4.78;;
18732;SDS011;9495;51.210;2.934;2023-10-08T00:18:20;19.27;;;5.07;;
18732;SDS011;9495;51.210;2.934;2023-10-08T00:20:49;18.00;;;5.18;;
18732;SDS011;9495;51.210;2.934;2023-10-08T00:23:25;18.77;;;5.25;;
18732;SDS011;9495;51.210;2.934;2023-10-08T00:25:55;20.17;;;4.80;;
18732;SDS011;9495;51.210;2.934;2023-10-08T00:28:24;20.75;;;5.50;;
18732;SDS011;9495;51.210;2.934;2023-10-08T00:30:55;20.75;;;6.18;;
18732;SDS011;9495;51.210;2.934;2023-10-08T00:33:24;23.73;;;5.45;;
18732;SDS011;9495;51.210;2.934;2023-10-08T00:35:52;25.33;;;5.45;;
18732;SDS011;9495;51.210;2.934;2023-10-08T00:38:21;19.95;;;4.75;;
18732;SDS011;9495;51.210;2.934;2023-10-08T00:40:52;23.67;;;5.88;;
18732;SDS011;9495;51.210;2.934;2023-10-08T00:43:33;17.88;;;5.53;;
18732;SDS011;9495;51.210;2.934;2023-10-08T00:46:02;26.75;;;6.00;;
18732;SDS011;9495;51.210;2.934;2023-10-08T00:48:32;29.27;;;6.07;;
18732;SDS011;9495;51.210;2.934;2023-10-08T00:51:03;24.15;;;5.68;;
18732;SDS011;9495;51.210;2.934;2023-10-08T00:53:50;25.85;;;6.18;;
18732;SDS011;9495;51.210;2.934;2023-10-08T00:56:24;22.80;;;4.93;;
18732;SDS011;9495;51.210;2.934;2023-10-08T00:59:13;24.13;;;5.28;;
18732;SDS011;9495;51.210;2.934;2023-10-08T01:01:42;26.92;;;5.65;;
18732;SDS011;9495;51.210;2.934;2023-10-08T01:04:18;27.23;;;5.82;;
18732;SDS011;9495;51.210;2.934;2023-10-08T01:06:49;23.75;;;5.95;;
18732;SDS011;9495;51.210;2.934;2023-10-08T01:09:25;21.90;;;5.07;;
18732;SDS011;9495;51.210;2.934;2023-10-08T01:12:08;20.20;;;5.32;;
18732;SDS011;9495;51.210;2.934;2023-10-08T01:14:43;22.42;;;5.65;;
18732;SDS011;9495;51.210;2.934;2023-10-08T01:17:13;28.27;;;6.55;;
18732;SDS011;9495;51.210;2.934;2023-10-08T01:19:42;21.50;;;5.82;;
18732;SDS011;9495;51.210;2.934;2023-10-08T01:22:17;24.45;;;6.30;;
18732;SDS011;9495;51.210;2.934;2023-10-08T01:24:48;30.10;;;5.80;;
18732;SDS011;9495;51.210;2.934;2023-10-08T01:27:17;29.63;;;6.28;;
18732;SDS011;9495;51.210;2.934;2023-10-08T01:29:48;25.73;;;6.22;;
18732;SDS011;9495;51.210;2.934;2023-10-08T01:32:18;28.70;;;5.75;;
18732;SDS011;9495;51.210;2.934;2023-10-08T01:34:49;29.65;;;6.47;;
18732;SDS011;9495;51.210;2.934;2023-10-08T01:37:19;29.92;;;6.88;;
18732;SDS011;9495;51.210;2.934;2023-10-08T01:39:48;22.95;;;6.60;;
18732;SDS011;9495;51.210;2.934;2023-10-08T01:42:17;25.10;;;6.18;;
18732;SDS011;9495;51.210;2.934;2023-10-08T01:44:47;24.90;;;5.72;;
18732;SDS011;9495;51.210;2.934;2023-10-08T01:47:17;29.55;;;5.80;;
18732;SDS011;9495;51.210;2.934;2023-10-08T01:49:46;29.05;;;6.45;;
18732;SDS011;9495;51.210;2.934;2023-10-08T01:52:15;25.75;;;6.15;;
18732;SDS011;9495;51.210;2.934;2023-10-08T01:54:49;27.55;;;5.95;;
18732;SDS011;9495;51.210;2.934;2023-10-08T01:57:20;27.17;;;6.88;;
18732;SDS011;9495;51.210;2.934;2023-10-08T01:59:49;23.23;;;6.90;;
18732;SDS011;9495;51.210;2.934;2023-10-08T02:02:17;26.77;;;6.25;;
18732;SDS011;9495;51.210;2.934;2023-10-08T02:04:46;23.63;;;5.72;;
18732;SDS011;9495;51.210;2.934;2023-10-08T02:07:14;22.85;;;5.30;;
18732;SDS011;9495;51.210;2.934;2023-10-08T02:09:43;33.25;;;7.63;;
18732;SDS011;9495;51.210;2.934;2023-10-08T02:12:13;24.40;;;6.43;;
18732;SDS011;9495;51.210;2.934;2023-10-08T02:14:41;31.98;;;6.60;;
18732;SDS011;9495;51.210;2.934;2023-10-08T02:17:11;28.15;;;7.15;;
18732;SDS011;9495;51.210;2.934;2023-10-08T02:19:40;32.65;;;6.30;;
18732;SDS011;9495;51.210;2.934;2023-10-08T02:22:09;19.98;;;5.85;;
18732;SDS011;9495;51.210;2.934;2023-10-08T02:24:37;26.10;;;6.32;;
18732;SDS011;9495;51.210;2.934;2023-10-08T02:27:07;29.25;;;6.97;;
18732;SDS011;9495;51.210;2.934;2023-10-08T02:29:38;29.70;;;6.82;;
18732;SDS011;9495;51.210;2.934;2023-10-08T02:32:07;28.95;;;6.60;;
18732;SDS011;9495;51.210;2.934;2023-10-08T02:34:35;30.73;;;6.55;;
18732;SDS011;9495;51.210;2.934;2023-10-08T02:37:04;29.15;;;7.18;;
18732;SDS011;9495;51.210;2.934;2023-10-08T02:39:32;31.70;;;7.45;;
18732;SDS011;9495;51.210;2.934;2023-10-08T02:42:01;30.20;;;8.00;;
18732;SDS011;9495;51.210;2.934;2023-10-08T02:44:38;32.30;;;7.45;;
18732;SDS011;9495;51.210;2.934;2023-10-08T02:47:08;27.25;;;8.13;;
18732;SDS011;9495;51.210;2.934;2023-10-08T02:49:39;28.23;;;7.82;;
18732;SDS011;9495;51.210;2.934;2023-10-08T02:52:08;26.67;;;7.53;;
18732;SDS011;9495;51.210;2.934;2023-10-08T02:54:37;27.65;;;7.72;;
18732;SDS011;9495;51.210;2.934;2023-10-08T02:57:06;23.67;;;8.60;;
18732;SDS011;9495;51.210;2.934;2023-10-08T02:59:41;24.58;;;8.35;;
18732;SDS011;9495;51.210;2.934;2023-10-08T03:02:12;19.75;;;7.35;;
18732;SDS011;9495;51.210;2.934;2023-10-08T03:04:42;20.10;;;7.63;;
18732;SDS011;9495;51.210;2.934;2023-10-08T03:07:12;15.35;;;7.75;;
18732;SDS011;9495;51.210;2.934;2023-10-08T03:09:48;20.20;;;8.02;;
18732;SDS011;9495;51.210;2.934;2023-10-08T03:12:17;17.80;;;8.32;;
18732;SDS011;9495;51.210;2.934;2023-10-08T03:14:49;16.08;;;7.88;;
18732;SDS011;9495;51.210;2.934;2023-10-08T03:17:27;17.45;;;8.80;;
18732;SDS011;9495;51.210;2.934;2023-10-08T03:19:56;15.18;;;8.05;;
18732;SDS011;9495;51.210;2.934;2023-10-08T03:22:45;18.88;;;8.55;;
18732;SDS011;9495;51.210;2.934;2023-10-08T03:25:13;18.10;;;8.30;;
18732;SDS011;9495;51.210;2.934;2023-10-08T03:27:43;17.38;;;8.38;;
18732;SDS011;9495;51.210;2.934;2023-10-08T03:30:13;15.55;;;7.63;;
18732;SDS011;9495;51.210;2.934;2023-10-08T03:32:42;22.23;;;9.18;;
18732;SDS011;9495;51.210;2.934;2023-10-08T03:35:12;18.50;;;9.43;;
18732;SDS011;9495;51.210;2.934;2023-10-08T03:37:43;16.75;;;8.60;;
18732;SDS011;9495;51.210;2.934;2023-10-08T03:40:17;14.93;;;8.25;;
18732;SDS011;9495;51.210;2.934;2023-10-08T03:42:59;15.23;;;7.50;;
18732;SDS011;9495;51.210;2.934;2023-10-08T03:45:30;18.33;;;7.97;;
18732;SDS011;9495;51.210;2.934;2023-10-08T03:48:12;16.42;;;8.40;;
18732;SDS011;9495;51.210;2.934;2023-10-08T03:50:42;18.15;;;8.68;;
18732;SDS011;9495;51.210;2.934;2023-10-08T03:53:11;16.13;;;9.13;;
18732;SDS011;9495;51.210;2.934;2023-10-08T03:55:40;14.77;;;7.65;;
18732;SDS011;9495;51.210;2.934;2023-10-08T03:58:09;19.63;;;7.63;;
18732;SDS011;9495;51.210;2.934;2023-10-08T04:00:44;19.23;;;8.40;;
18732;SDS011;9495;51.210;2.934;2023-10-08T04:03:12;15.95;;;8.30;;
18732;SDS011;9495;51.210;2.934;2023-10-08T04:05:50;20.17;;;8.63;;
18732;SDS011;9495;51.210;2.934;2023-10-08T04:08:31;15.18;;;8.75;;
18732;SDS011;9495;51.210;2.934;2023-10-08T04:11:10;17.73;;;8.50;;
18732;SDS011;9495;51.210;2.934;2023-10-08T04:13:57;15.05;;;8.27;;
18732;SDS011;9495;51.210;2.934;2023-10-08T04:16:31;17.63;;;8.88;;
18732;SDS011;9495;51.210;2.934;2023-10-08T04:19:03;14.85;;;8.20;;
18732;SDS011;9495;51.210;2.934;2023-10-08T04:21:32;19.17;;;8.95;;
18732;SDS011;9495;51.210;2.934;2023-10-08T04:24:01;21.15;;;9.38;;
18732;SDS011;9495;51.210;2.934;2023-10-08T04:26:34;21.88;;;8.93;;
18732;SDS011;9495;51.210;2.934;2023-10-08T04:29:06;19.02;;;8.98;;
18732;SDS011;9495;51.210;2.934;2023-10-08T04:31:37;15.65;;;9.10;;
18732;SDS011;9495;51.210;2.934;2023-10-08T04:34:10;21.88;;;8.98;;
18732;SDS011;9495;51.210;2.934;2023-10-08T04:36:43;18.95;;;9.73;;
18732;SDS011;9495;51.210;2.934;2023-10-08T04:39:14;19.17;;;9.40;;
18732;SDS011;9495;51.210;2.934;2023-10-08T04:41:47;24.52;;;9.68;;
18732;SDS011;9495;51.210;2.934;2023-10-08T04:44:20;18.80;;;9.27;;
18732;SDS011;9495;51.210;2.934;2023-10-08T04:46:51;20.65;;;9.95;;
18732;SDS011;9495;51.210;2.934;2023-10-08T04:49:20;19.17;;;9.68;;
18732;SDS011;9495;51.210;2.934;2023-10-08T04:51:54;23.23;;;9.93;;
18732;SDS011;9495;51.210;2.934;2023-10-08T04:54:27;23.45;;;9.25;;
18732;SDS011;9495;51.210;2.934;2023-10-08T04:56:57;22.85;;;9.98;;
18732;SDS011;9495;51.210;2.934;2023-10-08T04:59:29;24.60;;;9.90;;
18732;SDS011;9495;51.210;2.934;2023-10-08T05:02:02;17.50;;;9.35;;
18732;SDS011;9495;51.210;2.934;2023-10-08T05:04:47;24.45;;;9.55;;
18732;SDS011;9495;51.210;2.934;2023-10-08T05:07:49;27.58;;;10.25;;
18732;SDS011;9495;51.210;2.934;2023-10-08T05:10:44;25.13;;;11.05;;
18732;SDS011;9495;51.210;2.934;2023-10-08T05:13:27;23.58;;;11.15;;
18732;SDS011;9495;51.210;2.934;2023-10-08T05:16:12;24.45;;;10.68;;
18732;SDS011;9495;51.210;2.934;2023-10-08T05:19:03;22.73;;;10.55;;
18732;SDS011;9495;51.210;2.934;2023-10-08T05:21:51;21.70;;;11.10;;
18732;SDS011;9495;51.210;2.934;2023-10-08T05:24:32;17.58;;;10.35;;
18732;SDS011;9495;51.210;2.934;2023-10-08T05:27:05;25.10;;;11.37;;
18732;SDS011;9495;51.210;2.934;2023-10-08T05:29:50;21.80;;;11.23;;
18732;SDS011;9495;51.210;2.934;2023-10-08T05:32:36;21.23;;;10.35;;
18732;SDS011;9495;51.210;2.934;2023-10-08T05:35:34;22.30;;;11.88;;
18732;SDS011;9495;51.210;2.934;2023-10-08T05:38:21;24.25;;;10.90;;
18732;SDS011;9495;51.210;2.934;2023-10-08T05:41:05;19.50;;;11.55;;
18732;SDS011;9495;51.210;2.934;2023-10-08T05:43:54;22.90;;;11.30;;
18732;SDS011;9495;51.210;2.934;2023-10-08T05:46:41;20.30;;;10.10;;
18732;SDS011;9495;51.210;2.934;2023-10-08T05:49:39;20.70;;;11.10;;
18732;SDS011;9495;51.210;2.934;2023-10-08T05:52:22;22.58;;;11.32;;
18732;SDS011;9495;51.210;2.934;2023-10-08T05:54:57;24.98;;;11.48;;
18732;SDS011;9495;51.210;2.934;2023-10-08T05:57:53;19.42;;;11.65;;
18732;SDS011;9495;51.210;2.934;2023-10-08T06:00:40;20.48;;;11.48;;
18732;SDS011;9495;51.210;2.934;2023-10-08T06:03:29;22.27;;;11.38;;
18732;SDS011;9495;51.210;2.934;2023-10-08T06:06:04;23.65;;;11.35;;
18732;SDS011;9495;51.210;2.934;2023-10-08T06:09:05;19.33;;;11.20;;
18732;SDS011;9495;51.210;2.934;2023-10-08T06:11:47;23.00;;;12.40;;
18732;SDS011;9495;51.210;2.934;2023-10-08T06:14:34;22.92;;;12.07;;
18732;SDS011;9495;51.210;2.934;2023-10-08T06:17:34;26.08;;;12.95;;
18732;SDS011;9495;51.210;2.934;2023-10-08T06:20:24;22.98;;;12.23;;
18732;SDS011;9495;51.210;2.934;2023-10-08T06:22:53;20.00;;;11.90;;
18732;SDS011;9495;51.210;2.934;2023-10-08T06:25:28;19.45;;;11.90;;
18732;SDS011;9495;51.210;2.934;2023-10-08T06:27:57;20.67;;;12.55;;
18732;SDS011;9495;51.210;2.934;2023-10-08T06:30:26;22.70;;;12.70;;
18732;SDS011;9495;51.210;2.934;2023-10-08T06:32:56;24.63;;;13.25;;
18732;SDS011;9495;51.210;2.934;2023-10-08T06:35:25;29.10;;;13.82;;
18732;SDS011;9495;51.210;2.934;2023-10-08T06:37:55;22.60;;;13.48;;
18732;SDS011;9495;51.210;2.934;2023-10-08T06:40:26;27.33;;;12.70;;
18732;SDS011;9495;51.210;2.934;2023-10-08T06:43:11;28.52;;;13.38;;
18732;SDS011;9495;51.210;2.934;2023-10-08T06:45:44;23.98;;;12.90;;
18732;SDS011;9495;51.210;2.934;2023-10-08T06:48:14;25.27;;;13.13;;
18732;SDS011;9495;51.210;2.934;2023-10-08T06:50:47;27.90;;;12.98;;
18732;SDS011;9495;51.210;2.934;2023-10-08T06:53:17;29.85;;;14.63;;
18732;SDS011;9495;51.210;2.934;2023-10-08T06:55:46;27.48;;;14.35;;
18732;SDS011;9495;51.210;2.934;2023-10-08T06:58:23;21.08;;;12.93;;
18732;SDS011;9495;51.210;2.934;2023-10-08T07:00:52;30.83;;;12.88;;
18732;SDS011;9495;51.210;2.934;2023-10-08T07:03:22;27.48;;;12.77;;
18732;SDS011;9495;51.210;2.934;2023-10-08T07:05:51;24.92;;;13.93;;
18732;SDS011;9495;51.210;2.934;2023-10-08T07:08:27;23.42;;;13.00;;
18732;SDS011;9495;51.210;2.934;2023-10-08T07:10:58;34.28;;;14.32;;
18732;SDS011;9495;51.210;2.934;2023-10-08T07:13:33;26.57;;;13.80;;
18732;SDS011;9495;51.210;2.934;2023-10-08T07:16:03;27.75;;;14.00;;
18732;SDS011;9495;51.210;2.934;2023-10-08T07:18:38;21.05;;;14.05;;
18732;SDS011;9495;51.210;2.934;2023-10-08T07:21:08;28.42;;;13.98;;
18732;SDS011;9495;51.210;2.934;2023-10-08T07:23:39;21.88;;;13.80;;
18732;SDS011;9495;51.210;2.934;2023-10-08T07:26:23;24.00;;;13.98;;
18732;SDS011;9495;51.210;2.934;2023-10-08T07:28:54;27.98;;;14.25;;
18732;SDS011;9495;51.210;2.934;2023-10-08T07:31:23;28.50;;;14.93;;
18732;SDS011;9495;51.210;2.934;2023-10-08T07:33:55;25.25;;;14.45;;
18732;SDS011;9495;51.210;2.934;2023-10-08T07:36:24;29.10;;;15.18;;
18732;SDS011;9495;51.210;2.934;2023-10-08T07:38:53;26.13;;;14.00;;
18732;SDS011;9495;51.210;2.934;2023-10-08T07:41:22;28.95;;;14.75;;
18732;SDS011;9495;51.210;2.934;2023-10-08T07:43:50;22.75;;;14.38;;
18732;SDS011;9495;51.210;2.934;2023-10-08T07:46:24;35.47;;;14.32;;
18732;SDS011;9495;51.210;2.934;2023-10-08T07:48:53;30.35;;;14.45;;
18732;SDS011;9495;51.210;2.934;2023-10-08T07:51:22;22.52;;;13.65;;
18732;SDS011;9495;51.210;2.934;2023-10-08T07:53:50;27.02;;;13.60;;
18732;SDS011;9495;51.210;2.934;2023-10-08T07:56:21;30.08;;;14.80;;
18732;SDS011;9495;51.210;2.934;2023-10-08T07:58:50;24.25;;;12.15;;
18732;SDS011;9495;51.210;2.934;2023-10-08T08:01:18;22.70;;;12.70;;
18732;SDS011;9495;51.210;2.934;2023-10-08T08:03:49;26.10;;;13.05;;
18732;SDS011;9495;51.210;2.934;2023-10-08T08:06:17;26.10;;;15.10;;
18732;SDS011;9495;51.210;2.934;2023-10-08T08:08:46;27.67;;;14.00;;
18732;SDS011;9495;51.210;2.934;2023-10-08T08:11:14;24.33;;;12.73;;
18732;SDS011;9495;51.210;2.934;2023-10-08T08:13:44;34.25;;;14.32;;
18732;SDS011;9495;51.210;2.934;2023-10-08T08:16:13;25.55;;;14.05;;
18732;SDS011;9495;51.210;2.934;2023-10-08T08:18:45;25.40;;;13.70;;
18732;SDS011;9495;51.210;2.934;2023-10-08T08:21:16;22.33;;;13.73;;
18732;SDS011;9495;51.210;2.934;2023-10-08T08:23:46;23.92;;;14.05;;
18732;SDS011;9495;51.210;2.934;2023-10-08T08:26:15;29.23;;;14.30;;
18732;SDS011;9495;51.210;2.934;2023-10-08T08:28:54;32.78;;;15.10;;
18732;SDS011;9495;51.210;2.934;2023-10-08T08:31:23;29.63;;;15.50;;
18732;SDS011;9495;51.210;2.934;2023-10-08T08:33:53;28.38;;;13.80;;
18732;SDS011;9495;51.210;2.934;2023-10-08T08:36:25;27.23;;;13.73;;
18732;SDS011;9495;51.210;2.934;2023-10-08T08:38:55;32.35;;;14.63;;
18732;SDS011;9495;51.210;2.934;2023-10-08T08:41:24;27.20;;;13.80;;
18732;SDS011;9495;51.210;2.934;2023-10-08T08:43:53;28.38;;;15.15;;
18732;SDS011;9495;51.210;2.934;2023-10-08T08:46:27;26.70;;;14.63;;
18732;SDS011;9495;51.210;2.934;2023-10-08T08:49:00;27.60;;;15.00;;
18732;SDS011;9495;51.210;2.934;2023-10-08T08:51:33;30.17;;;14.13;;
18732;SDS011;9495;51.210;2.934;2023-10-08T08:54:02;28.52;;;14.23;;
18732;SDS011;9495;51.210;2.934;2023-10-08T08:56:33;32.70;;;13.57;;
18732;SDS011;9495;51.210;2.934;2023-10-08T08:59:04;34.60;;;14.05;;
18732;SDS011;9495;51.210;2.934;2023-10-08T09:01:33;25.08;;;14.73;;
18732;SDS011;9495;51.210;2.934;2023-10-08T09:04:03;24.92;;;14.90;;
18732;SDS011;9495;51.210;2.934;2023-10-08T09:06:34;30.15;;;13.93;;
18732;SDS011;9495;51.210;2.934;2023-10-08T09:09:04;27.17;;;14.90;;
18732;SDS011;9495;51.210;2.934;2023-10-08T09:11:49;27.23;;;14.23;;
18732;SDS011;9495;51.210;2.934;2023-10-08T09:14:19;27.25;;;14.25;;
18732;SDS011;9495;51.210;2.934;2023-10-08T09:16:49;23.35;;;13.85;;
18732;SDS011;9495;51.210;2.934;2023-10-08T09:19:17;29.40;;;15.07;;
18732;SDS011;9495;51.210;2.934;2023-10-08T09:22:00;26.08;;;12.48;;
18732;SDS011;9495;51.210;2.934;2023-10-08T09:24:31;27.30;;;12.90;;
18732;SDS011;9495;51.210;2.934;2023-10-08T09:27:03;26.98;;;13.13;;
18732;SDS011;9495;51.210;2.934;2023-10-08T09:29:32;25.17;;;12.70;;
18732;SDS011;9495;51.210;2.934;2023-10-08T09:32:08;24.65;;;12.25;;
18732;SDS011;9495;51.210;2.934;2023-10-08T09:34:40;21.30;;;10.68;;
18732;SDS011;9495;51.210;2.934;2023-10-08T09:37:11;18.70;;;9.73;;
18732;SDS011;9495;51.210;2.934;2023-10-08T09:39:40;15.10;;;9.75;;
18732;SDS011;9495;51.210;2.934;2023-10-08T09:42:12;19.25;;;9.80;;
18732;SDS011;9495;51.210;2.934;2023-10-08T09:44:41;16.90;;;8.77;;
18732;SDS011;9495;51.210;2.934;2023-10-08T09:47:10;20.42;;;9.27;;
18732;SDS011;9495;51.210;2.934;2023-10-08T09:49:51;22.85;;;11.45;;
18732;SDS011;9495;51.210;2.934;2023-10-08T09:52:28;23.70;;;10.27;;
18732;SDS011;9495;51.210;2.934;2023-10-08T09:55:03;18.10;;;9.38;;
18732;SDS011;9495;51.210;2.934;2023-10-08T09:57:37;21.00;;;10.75;;
18732;SDS011;9495;51.210;2.934;2023-10-08T10:00:06;21.45;;;10.48;;
18732;SDS011;9495;51.210;2.934;2023-10-08T10:02:41;17.42;;;10.25;;
18732;SDS011;9495;51.210;2.934;2023-10-08T10:05:10;19.55;;;10.45;;
18732;SDS011;9495;51.210;2.934;2023-10-08T10:07:41;18.58;;;9.40;;
18732;SDS011;9495;51.210;2.934;2023-10-08T10:12:57;19.13;;;11.15;;
18732;SDS011;9495;51.210;2.934;2023-10-08T10:15:27;18.50;;;11.25;;
18732;SDS011;9495;51.210;2.934;2023-10-08T10:17:58;21.20;;;9.93;;
18732;SDS011;9495;51.210;2.934;2023-10-08T10:20:38;15.90;;;10.82;;
18732;SDS011;9495;51.210;2.934;2023-10-08T10:26:21;18.90;;;9.43;;
18732;SDS011;9495;51.210;2.934;2023-10-08T10:31:52;21.25;;;10.07;;
18732;SDS011;9495;51.210;2.934;2023-10-08T10:34:24;20.02;;;10.20;;
18732;SDS011;9495;51.210;2.934;2023-10-08T10:36:55;20.02;;;9.90;;
18732;SDS011;9495;51.210;2.934;2023-10-08T10:39:27;22.65;;;9.65;;
18732;SDS011;9495;51.210;2.934;2023-10-08T10:41:58;15.93;;;9.65;;
18732;SDS011;9495;51.210;2.934;2023-10-08T10:44:29;18.33;;;9.95;;
18732;SDS011;9495;51.210;2.934;2023-10-08T10:46:59;17.83;;;9.73;;
18732;SDS011;9495;51.210;2.934;2023-10-08T10:49:45;17.92;;;10.07;;
18732;SDS011;9495;51.210;2.934;2023-10-08T10:52:20;18.70;;;10.48;;
18732;SDS011;9495;51.210;2.934;2023-10-08T10:55:01;16.33;;;9.30;;
18732;SDS011;9495;51.210;2.934;2023-10-08T10:57:46;18.52;;;8.35;;
18732;SDS011;9495;51.210;2.934;2023-10-08T11:00:23;19.85;;;8.80;;
18732;SDS011;9495;51.210;2.934;2023-10-08T11:03:10;15.55;;;8.35;;
18732;SDS011;9495;51.210;2.934;2023-10-08T11:05:47;16.05;;;9.43;;
18732;SDS011;9495;51.210;2.934;2023-10-08T11:08:21;18.67;;;9.05;;
18732;SDS011;9495;51.210;2.934;2023-10-08T11:10:55;18.20;;;9.02;;
18732;SDS011;9495;51.210;2.934;2023-10-08T11:13:25;17.23;;;8.77;;
18732;SDS011;9495;51.210;2.934;2023-10-08T11:16:04;18.52;;;8.63;;
18732;SDS011;9495;51.210;2.934;2023-10-08T11:18:34;20.35;;;9.68;;
18732;SDS011;9495;51.210;2.934;2023-10-08T11:21:09;18.33;;;9.65;;
18732;SDS011;9495;51.210;2.934;2023-10-08T11:23:49;18.83;;;8.82;;
18732;SDS011;9495;51.210;2.934;2023-10-08T11:26:24;18.05;;;8.50;;
18732;SDS011;9495;51.210;2.934;2023-10-08T11:29:06;17.10;;;8.77;;
18732;SDS011;9495;51.210;2.934;2023-10-08T11:31:41;13.88;;;7.90;;
18732;SDS011;9495;51.210;2.934;2023-10-08T11:34:10;16.75;;;8.65;;
18732;SDS011;9495;51.210;2.934;2023-10-08T11:36:40;18.00;;;8.40;;
18732;SDS011;9495;51.210;2.934;2023-10-08T11:39:20;15.07;;;7.85;;
18732;SDS011;9495;51.210;2.934;2023-10-08T11:41:56;14.88;;;7.65;;
18732;SDS011;9495;51.210;2.934;2023-10-08T11:44:30;14.75;;;7.13;;
18732;SDS011;9495;51.210;2.934;2023-10-08T11:46:58;18.98;;;7.25;;
18732;SDS011;9495;51.210;2.934;2023-10-08T11:49:31;16.13;;;7.32;;
18732;SDS011;9495;51.210;2.934;2023-10-08T11:52:03;16.80;;;8.07;;
18732;SDS011;9495;51.210;2.934;2023-10-08T11:54:32;15.00;;;6.43;;
18732;SDS011;9495;51.210;2.934;2023-10-08T11:57:02;15.07;;;7.15;;
18732;SDS011;9495;51.210;2.934;2023-10-08T11:59:30;13.05;;;7.30;;
18732;SDS011;9495;51.210;2.934;2023-10-08T12:02:02;12.88;;;7.53;;
18732;SDS011;9495;51.210;2.934;2023-10-08T12:04:31;12.57;;;6.90;;
18732;SDS011;9495;51.210;2.934;2023-10-08T12:07:00;14.73;;;7.40;;
18732;SDS011;9495;51.210;2.934;2023-10-08T12:09:34;14.15;;;7.38;;
18732;SDS011;9495;51.210;2.934;2023-10-08T12:12:06;15.02;;;7.50;;
18732;SDS011;9495;51.210;2.934;2023-10-08T12:14:36;14.20;;;7.28;;
18732;SDS011;9495;51.210;2.934;2023-10-08T12:17:05;12.70;;;7.28;;
18732;SDS011;9495;51.210;2.934;2023-10-08T12:19:38;13.27;;;6.03;;
18732;SDS011;9495;51.210;2.934;2023-10-08T12:22:09;17.80;;;8.90;;
18732;SDS011;9495;51.210;2.934;2023-10-08T12:24:44;18.08;;;7.93;;
18732;SDS011;9495;51.210;2.934;2023-10-08T12:27:14;17.42;;;8.23;;
18732;SDS011;9495;51.210;2.934;2023-10-08T12:29:43;16.42;;;8.02;;
18732;SDS011;9495;51.210;2.934;2023-10-08T12:32:14;18.85;;;7.90;;
18732;SDS011;9495;51.210;2.934;2023-10-08T12:34:45;15.93;;;6.32;;
18732;SDS011;9495;51.210;2.934;2023-10-08T12:37:14;15.05;;;6.70;;
18732;SDS011;9495;51.210;2.934;2023-10-08T12:39:42;16.80;;;7.07;;
18732;SDS011;9495;51.210;2.934;2023-10-08T12:42:28;18.38;;;7.15;;
18732;SDS011;9495;51.210;2.934;2023-10-08T12:44:56;15.75;;;6.18;;
18732;SDS011;9495;51.210;2.934;2023-10-08T12:47:28;15.35;;;6.45;;
18732;SDS011;9495;51.210;2.934;2023-10-08T12:49:57;14.35;;;6.32;;
18732;SDS011;9495;51.210;2.934;2023-10-08T12:52:25;15.48;;;6.70;;
18732;SDS011;9495;51.210;2.934;2023-10-08T12:54:55;12.32;;;5.45;;
18732;SDS011;9495;51.210;2.934;2023-10-08T12:57:31;12.35;;;5.30;;
18732;SDS011;9495;51.210;2.934;2023-10-08T13:00:01;15.38;;;5.88;;
18732;SDS011;9495;51.210;2.934;2023-10-08T13:02:30;9.43;;;5.53;;
18732;SDS011;9495;51.210;2.934;2023-10-08T13:05:01;12.82;;;6.00;;
18732;SDS011;9495;51.210;2.934;2023-10-08T13:07:33;10.98;;;5.63;;
18732;SDS011;9495;51.210;2.934;2023-10-08T13:10:08;13.80;;;5.90;;
18732;SDS011;9495;51.210;2.934;2023-10-08T13:12:42;11.50;;;5.60;;
18732;SDS011;9495;51.210;2.934;2023-10-08T13:15:11;13.00;;;5.70;;
18732;SDS011;9495;51.210;2.934;2023-10-08T13:17:40;10.45;;;5.43;;
18732;SDS011;9495;51.210;2.934;2023-10-08T13:20:09;13.35;;;5.60;;
18732;SDS011;9495;51.210;2.934;2023-10-08T13:22:38;9.73;;;5.30;;
18732;SDS011;9495;51.210;2.934;2023-10-08T13:25:07;9.27;;;5.28;;
18732;SDS011;9495;51.210;2.934;2023-10-08T13:27:36;12.90;;;6.15;;
18732;SDS011;9495;51.210;2.934;2023-10-08T13:30:08;13.38;;;5.60;;
18732;SDS011;9495;51.210;2.934;2023-10-08T13:32:37;17.23;;;6.20;;
18732;SDS011;9495;51.210;2.934;2023-10-08T13:35:06;14.60;;;6.28;;
18732;SDS011;9495;51.210;2.934;2023-10-08T13:37:35;11.30;;;5.53;;
18732;SDS011;9495;51.210;2.934;2023-10-08T13:40:04;7.60;;;4.75;;
18732;SDS011;9495;51.210;2.934;2023-10-08T13:42:33;10.95;;;6.22;;
18732;SDS011;9495;51.210;2.934;2023-10-08T13:45:02;13.32;;;5.55;;
18732;SDS011;9495;51.210;2.934;2023-10-08T13:47:36;14.13;;;5.40;;
18732;SDS011;9495;51.210;2.934;2023-10-08T13:50:06;14.07;;;6.00;;
18732;SDS011;9495;51.210;2.934;2023-10-08T13:52:38;10.77;;;4.93;;
18732;SDS011;9495;51.210;2.934;2023-10-08T13:55:07;12.32;;;5.28;;
18732;SDS011;9495;51.210;2.934;2023-10-08T13:57:40;11.55;;;5.43;;
18732;SDS011;9495;51.210;2.934;2023-10-08T14:00:10;10.02;;;5.40;;
18732;SDS011;9495;51.210;2.934;2023-10-08T14:02:43;9.80;;;5.13;;
18732;SDS011;9495;51.210;2.934;2023-10-08T14:05:12;11.48;;;5.43;;
18732;SDS011;9495;51.210;2.934;2023-10-08T14:07:42;11.32;;;5.35;;
18732;SDS011;9495;51.210;2.934;2023-10-08T14:10:11;14.27;;;5.35;;
18732;SDS011;9495;51.210;2.934;2023-10-08T14:12:45;14.48;;;6.03;;
18732;SDS011;9495;51.210;2.934;2023-10-08T14:15:15;12.65;;;5.70;;
18732;SDS011;9495;51.210;2.934;2023-10-08T14:17:46;14.00;;;5.75;;
18732;SDS011;9495;51.210;2.934;2023-10-08T14:20:15;11.77;;;6.15;;
18732;SDS011;9495;51.210;2.934;2023-10-08T14:22:48;13.75;;;6.60;;
18732;SDS011;9495;51.210;2.934;2023-10-08T14:25:25;16.40;;;6.20;;
18732;SDS011;9495;51.210;2.934;2023-10-08T14:27:54;16.83;;;6.22;;
18732;SDS011;9495;51.210;2.934;2023-10-08T14:30:31;13.18;;;6.05;;
18732;SDS011;9495;51.210;2.934;2023-10-08T14:33:08;14.93;;;5.75;;
18732;SDS011;9495;51.210;2.934;2023-10-08T14:35:40;13.90;;;5.82;;
18732;SDS011;9495;51.210;2.934;2023-10-08T14:38:26;15.82;;;6.00;;
18732;SDS011;9495;51.210;2.934;2023-10-08T14:41:12;11.98;;;5.57;;
18732;SDS011;9495;51.210;2.934;2023-10-08T14:43:58;13.40;;;4.68;;
18732;SDS011;9495;51.210;2.934;2023-10-08T14:46:27;15.48;;;5.13;;
18732;SDS011;9495;51.210;2.934;2023-10-08T14:49:00;11.45;;;5.40;;
18732;SDS011;9495;51.210;2.934;2023-10-08T14:51:29;12.07;;;5.20;;
18732;SDS011;9495;51.210;2.934;2023-10-08T14:53:58;12.82;;;5.43;;
18732;SDS011;9495;51.210;2.934;2023-10-08T14:56:27;8.13;;;4.72;;
18732;SDS011;9495;51.210;2.934;2023-10-08T14:58:59;13.18;;;5.93;;
18732;SDS011;9495;51.210;2.934;2023-10-08T15:01:28;10.65;;;4.97;;
18732;SDS011;9495;51.210;2.934;2023-10-08T15:04:00;11.25;;;5.60;;
18732;SDS011;9495;51.210;2.934;2023-10-08T15:06:31;8.60;;;4.80;;
18732;SDS011;9495;51.210;2.934;2023-10-08T15:09:00;10.30;;;4.43;;
18732;SDS011;9495;51.210;2.934;2023-10-08T15:11:28;9.98;;;4.45;;
18732;SDS011;9495;51.210;2.934;2023-10-08T15:13:57;11.00;;;4.60;;
18732;SDS011;9495;51.210;2.934;2023-10-08T15:16:26;14.00;;;4.72;;
18732;SDS011;9495;51.210;2.934;2023-10-08T15:18:55;10.65;;;4.93;;
18732;SDS011;9495;51.210;2.934;2023-10-08T15:21:25;8.90;;;4.72;;
18732;SDS011;9495;51.210;2.934;2023-10-08T15:23:54;8.48;;;3.95;;
18732;SDS011;9495;51.210;2.934;2023-10-08T15:26:23;10.25;;;4.88;;